Time;durP1;ratioP1;P1;durP2;ratioP2;P2;SDS_P1;SDS_P2;PMS_P1;PMS_P2;Temp;Humidity;BMP_temperature;BMP_pressure;BME280_temperature;BME280_humidity;BME280_pressure;Samples;Min_cycle;Max_cycle;Signal;HPM_P1;HPM_P2
2021/01/02 00:02:32;;;;;;;13.13;7.40;;;2.60;99.90;;;;;;5045371;28;20024;-45
2021/01/02 00:05:11;;;;;;;10.82;6.43;;;2.60;99.90;;;;;;5042226;28;20025;-46
2021/01/02 00:08:13;;;;;;;11.38;6.75;;;2.60;99.90;;;;;;5039699;28;20029;-50
2021/01/02 00:10:53;;;;;;;17.60;7.38;;;2.60;99.90;;;;;;5042619;28;20044;-52
2021/01/02 00:13:39;;;;;;;12.90;6.68;;;2.60;99.90;;;;;;5034590;28;20100;-50
2021/01/02 00:16:34;;;;;;;17.17;7.18;;;2.60;99.90;;;;;;5037563;28;20120;-48
2021/01/02 00:19:04;;;;;;;15.38;7.82;;;2.60;99.90;;;;;;5040015;28;20204;-47
2021/01/02 00:21:43;;;;;;;13.88;8.25;;;2.60;99.90;;;;;;5033255;28;20492;-47
2021/01/02 00:24:28;;;;;;;12.32;7.47;;;2.60;99.90;;;;;;5034684;28;20570;-48
2021/01/02 00:27:09;;;;;;;14.32;7.43;;;2.60;99.90;;;;;;5034674;28;20030;-49
2021/01/02 00:29:59;;;;;;;18.08;10.82;;;2.60;99.90;;;;;;5036270;28;20025;-47
2021/01/02 00:32:44;;;;;;;16.92;8.75;;;2.60;99.90;;;;;;5035598;28;20041;-45
2021/01/02 00:35:19;;;;;;;17.17;7.88;;;2.60;99.90;;;;;;5049432;28;20474;-50
2021/01/02 00:37:49;;;;;;;16.95;7.65;;;2.60;99.90;;;;;;5039135;28;20030;-46
2021/01/02 00:40:17;;;;;;;13.90;6.95;;;2.60;99.90;;;;;;5041862;28;20363;-48
2021/01/02 00:42:44;;;;;;;14.13;7.55;;;2.50;99.90;;;;;;5047332;28;20021;-53
2021/01/02 00:45:15;;;;;;;17.63;8.52;;;2.50;99.90;;;;;;5036139;28;20116;-47
2021/01/02 00:47:42;;;;;;;13.23;6.38;;;2.60;99.90;;;;;;5046649;28;20024;-50
2021/01/02 00:50:10;;;;;;;13.02;7.60;;;2.50;99.90;;;;;;5051192;28;20045;-46
2021/01/02 00:52:45;;;;;;;14.27;7.35;;;2.60;99.90;;;;;;5047730;28;20040;-53
2021/01/02 00:55:22;;;;;;;15.57;6.80;;;2.60;99.90;;;;;;5044338;28;20099;-49
2021/01/02 00:58:08;;;;;;;16.77;8.02;;;2.50;99.90;;;;;;5043505;28;20029;-48
2021/01/02 01:00:43;;;;;;;18.08;7.38;;;2.50;99.90;;;;;;5038365;28;20041;-49
2021/01/02 01:03:34;;;;;;;12.45;6.93;;;2.50;99.90;;;;;;5037409;28;20197;-50
2021/01/02 01:06:03;;;;;;;15.73;7.30;;;2.40;99.90;;;;;;5047348;28;20729;-46
2021/01/02 01:08:32;;;;;;;16.50;9.77;;;2.40;99.90;;;;;;5045815;28;20049;-49
2021/01/02 01:11:02;;;;;;;19.85;10.93;;;2.40;99.90;;;;;;5035401;28;20029;-49
2021/01/02 01:13:28;;;;;;;14.10;7.88;;;2.30;99.90;;;;;;5042209;28;20090;-50
2021/01/02 01:15:56;;;;;;;14.77;7.65;;;2.30;99.90;;;;;;5040745;28;20033;-46
2021/01/02 01:18:40;;;;;;;12.07;7.18;;;2.30;99.90;;;;;;5038545;28;20032;-47
2021/01/02 01:21:09;;;;;;;12.95;6.85;;;2.20;99.90;;;;;;5039610;28;20029;-48
2021/01/02 01:24:08;;;;;;;14.25;6.20;;;2.20;99.90;;;;;;5039297;28;20103;-44
2021/01/02 01:26:58;;;;;;;10.70;6.22;;;2.10;99.90;;;;;;5035594;28;20041;-50
2021/01/02 01:29:47;;;;;;;12.80;6.82;;;2.00;99.90;;;;;;5032558;28;20422;-50
2021/01/02 01:32:19;;;;;;;14.48;7.15;;;1.90;99.90;;;;;;5034728;28;20025;-47
2021/01/02 01:34:47;;;;;;;13.85;7.75;;;1.90;99.90;;;;;;5040483;28;20033;-47
2021/01/02 01:37:15;;;;;;;14.27;8.48;;;1.80;99.90;;;;;;5038934;28;20030;-48
2021/01/02 01:39:49;;;;;;;10.40;5.45;;;1.80;99.90;;;;;;5037935;28;20033;-48
2021/01/02 01:42:17;;;;;;;13.07;7.15;;;1.70;99.90;;;;;;5030978;28;20071;-47
2021/01/02 01:45:06;;;;;;;12.32;7.18;;;1.60;99.90;;;;;;5038921;28;20075;-47
2021/01/02 01:47:41;;;;;;;12.13;7.03;;;1.60;99.90;;;;;;5032509;28;20047;-47
2021/01/02 01:50:22;;;;;;;12.32;7.05;;;1.60;99.90;;;;;;5035897;28;20148;-50
2021/01/02 01:52:51;;;;;;;14.07;6.53;;;1.50;99.90;;;;;;5030882;28;20083;-52
2021/01/02 01:55:30;;;;;;;10.65;6.90;;;1.50;99.90;;;;;;5038237;28;20096;-44
2021/01/02 01:58:15;;;;;;;14.00;6.93;;;1.50;99.90;;;;;;5032758;28;20489;-48
2021/01/02 02:00:50;;;;;;;15.75;6.97;;;1.40;99.90;;;;;;5031869;28;20052;-48
2021/01/02 02:03:27;;;;;;;12.30;7.70;;;1.30;99.90;;;;;;5039791;28;20021;-48
2021/01/02 02:06:15;;;;;;;15.05;7.53;;;1.20;99.90;;;;;;5046622;28;20313;-52
2021/01/02 02:08:50;;;;;;;15.57;7.05;;;1.10;99.90;;;;;;5032947;28;20070;-46
2021/01/02 02:11:43;;;;;;;14.57;7.23;;;1.00;99.90;;;;;;5045839;28;20113;-47
2021/01/02 02:14:23;;;;;;;15.07;7.75;;;0.80;99.90;;;;;;5041934;28;20045;-47
2021/01/02 02:16:57;;;;;;;15.52;7.80;;;0.80;99.90;;;;;;5038067;28;20199;-47
2021/01/02 02:20:18;;;;;;;15.55;7.97;;;0.60;99.90;;;;;;5042745;28;20048;-48
2021/01/02 02:22:44;;;;;;;11.95;6.82;;;0.60;99.90;;;;;;4987307;28;20483;-46
2021/01/02 02:25:13;;;;;;;17.13;8.60;;;0.40;99.90;;;;;;4989082;28;20053;-51
2021/01/02 02:27:41;;;;;;;14.60;7.80;;;0.40;99.90;;;;;;5014957;28;20462;-46
2021/01/02 02:30:10;;;;;;;14.70;7.13;;;0.40;99.90;;;;;;5034835;28;20490;-47
2021/01/02 02:32:46;;;;;;;15.93;7.72;;;0.30;99.90;;;;;;5039556;28;20032;-46
2021/01/02 02:35:18;;;;;;;15.70;7.30;;;0.10;99.90;;;;;;5054936;28;20024;-47
2021/01/02 02:37:47;;;;;;;14.95;7.63;;;0.00;99.90;;;;;;5042910;28;20456;-48
2021/01/02 02:40:17;;;;;;;18.08;9.32;;;-0.10;99.90;;;;;;5042348;28;20053;-49
2021/01/02 02:42:55;;;;;;;15.48;7.40;;;-0.20;99.90;;;;;;5036171;28;20042;-51
2021/01/02 02:45:24;;;;;;;13.75;7.70;;;-0.20;99.90;;;;;;5034439;28;20037;-46
2021/01/02 02:47:54;;;;;;;14.23;6.55;;;-0.30;99.90;;;;;;5039394;28;20041;-48
2021/01/02 02:50:25;;;;;;;15.05;7.20;;;-0.40;99.90;;;;;;5038773;28;20196;-44
2021/01/02 02:53:10;;;;;;;13.88;7.50;;;-0.50;99.90;;;;;;5035236;28;20501;-48
2021/01/02 02:55:44;;;;;;;19.33;9.13;;;-0.60;99.90;;;;;;5038585;28;20033;-46
2021/01/02 02:58:11;;;;;;;18.83;8.85;;;-0.50;99.90;;;;;;5035188;28;20026;-47
2021/01/02 03:00:37;;;;;;;17.23;8.23;;;-0.60;99.90;;;;;;5041432;28;20079;-44
2021/01/02 03:03:07;;;;;;;18.73;7.93;;;-0.60;99.90;;;;;;5038361;28;20034;-47
2021/01/02 03:05:33;;;;;;;18.67;7.85;;;-0.70;99.90;;;;;;5034551;28;20057;-48
2021/01/02 03:08:00;;;;;;;14.93;6.13;;;-0.80;99.90;;;;;;5035413;28;20029;-50
2021/01/02 03:10:25;;;;;;;19.10;8.07;;;-0.80;99.90;;;;;;5035159;28;20039;-46
2021/01/02 03:12:53;;;;;;;18.75;9.35;;;-0.90;99.90;;;;;;5037586;28;20034;-48
2021/01/02 03:15:26;;;;;;;18.13;8.15;;;-0.90;99.90;;;;;;5033730;28;20485;-47
2021/01/02 03:17:55;;;;;;;14.15;6.70;;;-1.00;99.90;;;;;;5039240;28;20460;-48
2021/01/02 03:20:21;;;;;;;17.33;7.50;;;-1.10;99.90;;;;;;5037661;28;21036;-50
2021/01/02 03:22:48;;;;;;;24.15;8.82;;;-1.10;99.90;;;;;;5037811;28;20100;-45
2021/01/02 03:25:15;;;;;;;19.98;7.93;;;-1.10;99.90;;;;;;5037826;28;20063;-51
2021/01/02 03:27:41;;;;;;;18.67;7.60;;;-1.20;99.90;;;;;;5037890;28;20048;-45
2021/01/02 03:30:12;;;;;;;15.38;7.43;;;-1.30;99.90;;;;;;5035494;28;20030;-50
2021/01/02 03:32:37;;;;;;;9.93;5.22;;;-1.40;99.90;;;;;;5035924;28;20061;-46
2021/01/02 03:35:08;;;;;;;13.18;6.75;;;-1.50;99.90;;;;;;5034638;28;20030;-48
2021/01/02 03:37:35;;;;;;;16.02;7.25;;;-1.50;99.90;;;;;;5041520;28;20108;-52
2021/01/02 03:40:00;;;;;;;17.17;6.25;;;-1.60;99.90;;;;;;5033861;28;20422;-45
2021/01/02 03:42:26;;;;;;;14.65;6.63;;;-1.60;99.90;;;;;;5034960;28;20112;-49
2021/01/02 03:44:51;;;;;;;13.93;6.22;;;-1.70;99.90;;;;;;5041266;28;20100;-50
2021/01/02 03:47:17;;;;;;;15.30;6.95;;;-1.70;99.90;;;;;;5034234;28;20371;-47
2021/01/02 03:49:43;;;;;;;16.33;6.95;;;-1.70;99.90;;;;;;5037805;28;20167;-48
2021/01/02 03:52:08;;;;;;;17.27;6.63;;;-1.70;99.90;;;;;;5039878;28;20037;-48
2021/01/02 03:54:35;;;;;;;22.20;8.30;;;-1.80;99.90;;;;;;5033830;28;20534;-47
2021/01/02 03:57:01;;;;;;;14.10;5.75;;;-1.80;99.90;;;;;;5033950;28;20054;-49
2021/01/02 03:59:27;;;;;;;13.45;5.97;;;-1.90;99.90;;;;;;5037784;28;20057;-49
2021/01/02 04:01:57;;;;;;;17.88;7.60;;;-2.00;99.90;;;;;;5034958;28;20057;-52
2021/01/02 04:04:22;;;;;;;18.05;6.80;;;-2.00;99.90;;;;;;5033864;28;20525;-49
2021/01/02 04:06:50;;;;;;;18.60;7.25;;;-2.10;99.90;;;;;;5033767;28;20044;-48
2021/01/02 04:09:15;;;;;;;17.95;7.22;;;-2.10;99.90;;;;;;5046590;28;20022;-49
2021/01/02 04:11:42;;;;;;;19.45;7.28;;;-2.10;99.90;;;;;;5039061;28;20108;-47
2021/01/02 04:14:08;;;;;;;17.92;7.47;;;-2.10;99.90;;;;;;5033733;28;20739;-48
2021/01/02 04:16:34;;;;;;;19.98;7.18;;;-2.10;99.90;;;;;;5036825;28;20045;-51
2021/01/02 04:19:00;;;;;;;20.23;8.30;;;-2.10;99.90;;;;;;5038481;28;20486;-49
2021/01/02 04:21:26;;;;;;;20.23;8.50;;;-2.10;99.90;;;;;;5036508;28;20044;-48
2021/01/02 04:23:51;;;;;;;16.70;6.63;;;-2.20;99.90;;;;;;5037176;28;20034;-47
2021/01/02 04:26:21;;;;;;;16.42;7.43;;;-2.20;99.90;;;;;;5038052;28;20108;-48
2021/01/02 04:28:47;;;;;;;19.23;7.60;;;-2.20;99.90;;;;;;5042250;28;20071;-49
2021/01/02 04:31:12;;;;;;;15.23;7.18;;;-2.20;99.90;;;;;;5032615;28;20430;-52
2021/01/02 04:33:38;;;;;;;18.70;6.85;;;-2.20;99.90;;;;;;5036476;28;20037;-47
2021/01/02 04:36:04;;;;;;;23.45;8.70;;;-2.20;99.90;;;;;;5040103;28;20029;-46
2021/01/02 04:38:30;;;;;;;26.17;9.50;;;-2.20;99.90;;;;;;5044752;28;20029;-47
2021/01/02 04:40:59;;;;;;;15.43;7.07;;;-2.20;99.90;;;;;;5033764;28;20034;-51
2021/01/02 04:43:25;;;;;;;24.88;9.02;;;-2.20;99.90;;;;;;5044717;28;20068;-51
2021/01/02 04:45:53;;;;;;;21.90;9.30;;;-2.20;99.90;;;;;;5036787;28;20056;-47
2021/01/02 04:48:18;;;;;;;23.55;9.05;;;-2.10;99.90;;;;;;5034755;28;20111;-50
2021/01/02 04:50:45;;;;;;;26.13;8.60;;;-1.90;99.90;;;;;;5035679;28;20136;-50
2021/01/02 04:53:12;;;;;;;21.85;7.78;;;-1.80;99.90;;;;;;5041404;28;20478;-49
2021/01/02 04:55:45;;;;;;;21.85;8.55;;;-1.60;99.90;;;;;;5033178;28;20067;-52
2021/01/02 04:58:14;;;;;;;18.00;6.47;;;-1.50;99.90;;;;;;5035425;28;20021;-49
2021/01/02 05:00:41;;;;;;;23.02;8.15;;;-1.40;99.90;;;;;;5032967;28;20033;-51
2021/01/02 05:03:07;;;;;;;28.15;9.65;;;-1.20;99.90;;;;;;5039296;28;20029;-45
2021/01/02 05:05:33;;;;;;;19.05;7.80;;;-1.10;99.90;;;;;;5039440;28;20037;-50
2021/01/02 05:07:59;;;;;;;26.27;10.02;;;-1.00;99.90;;;;;;5039329;28;20045;-46
2021/01/02 05:10:24;;;;;;;26.77;10.40;;;-0.90;99.90;;;;;;5038970;28;20036;-50
2021/01/02 05:13:05;;;;;;;21.90;9.70;;;-0.80;99.90;;;;;;5035147;28;20085;-48
2021/01/02 05:15:32;;;;;;;24.88;9.25;;;-0.80;99.90;;;;;;5034733;28;20494;-44
2021/01/02 05:17:58;;;;;;;20.65;8.13;;;-0.70;99.90;;;;;;5035636;28;20030;-47
2021/01/02 05:20:24;;;;;;;20.40;8.60;;;-0.60;99.90;;;;;;5038049;28;20036;-45
2021/01/02 05:22:49;;;;;;;22.60;9.10;;;-0.60;99.90;;;;;;5031985;28;20072;-44
2021/01/02 05:25:20;;;;;;;19.17;9.50;;;-0.50;99.90;;;;;;5043848;28;20021;-49
2021/01/02 05:27:48;;;;;;;27.55;11.38;;;-0.40;99.90;;;;;;5032246;28;20029;-45
2021/01/02 05:30:19;;;;;;;22.30;9.68;;;-0.30;99.90;;;;;;5031489;28;20026;-45
2021/01/02 05:33:04;;;;;;;27.70;11.00;;;-0.30;99.90;;;;;;5037165;28;20528;-46
2021/01/02 05:35:40;;;;;;;25.92;10.10;;;-0.30;99.90;;;;;;5038207;28;20028;-45
2021/01/02 05:38:13;;;;;;;26.92;9.68;;;-0.30;99.90;;;;;;5037915;28;20061;-45
2021/01/02 05:40:59;;;;;;;25.58;12.25;;;-0.20;99.90;;;;;;5030163;28;20116;-49
2021/01/02 05:43:27;;;;;;;26.65;10.55;;;-0.10;99.90;;;;;;5040136;28;20021;-48
2021/01/02 05:45:53;;;;;;;26.10;11.45;;;-0.10;99.90;;;;;;5036554;28;20180;-48
2021/01/02 05:48:22;;;;;;;24.38;10.48;;;-0.10;99.90;;;;;;5031761;28;20026;-48
2021/01/02 05:51:01;;;;;;;21.38;9.40;;;-0.10;99.90;;;;;;5043434;28;20052;-49
2021/01/02 05:53:27;;;;;;;29.38;13.02;;;-0.10;99.90;;;;;;5035262;28;20096;-47
2021/01/02 05:56:11;;;;;;;25.45;10.63;;;-0.10;99.90;;;;;;5031818;28;20037;-46
2021/01/02 05:58:44;;;;;;;23.73;10.32;;;-0.10;99.90;;;;;;5035513;28;20474;-46
2021/01/02 06:01:19;;;;;;;23.77;11.45;;;-0.10;99.90;;;;;;5030190;28;20021;-46
2021/01/02 06:03:46;;;;;;;33.75;15.68;;;-0.10;99.90;;;;;;5032221;28;20545;-45
2021/01/02 06:06:14;;;;;;;29.25;13.70;;;-0.20;99.90;;;;;;5031352;28;20025;-48
2021/01/02 06:08:44;;;;;;;27.92;12.18;;;-0.20;99.90;;;;;;5037061;28;20025;-46
2021/01/02 06:11:15;;;;;;;27.98;11.00;;;-0.30;99.90;;;;;;5032060;28;20219;-49
2021/01/02 06:13:43;;;;;;;22.27;10.73;;;-0.30;99.90;;;;;;5036313;28;20476;-46
2021/01/02 06:16:12;;;;;;;30.48;12.20;;;-0.40;99.90;;;;;;5037646;28;20474;-45
2021/01/02 06:18:43;;;;;;;22.20;9.68;;;-0.40;99.90;;;;;;5035953;28;20026;-45
2021/01/02 06:21:14;;;;;;;32.70;14.50;;;-0.30;99.90;;;;;;5035482;28;20021;-51
2021/01/02 06:23:42;;;;;;;32.22;15.20;;;-0.30;99.90;;;;;;5038684;28;20040;-46
2021/01/02 06:26:09;;;;;;;30.13;12.20;;;-0.30;99.90;;;;;;5064735;28;20025;-50
2021/01/02 06:28:42;;;;;;;28.13;14.60;;;-0.20;99.90;;;;;;5037957;28;20022;-45
2021/01/02 06:31:18;;;;;;;43.47;20.02;;;-0.20;99.90;;;;;;5032797;28;20071;-46
2021/01/02 06:33:45;;;;;;;36.95;17.08;;;-0.20;99.90;;;;;;5040446;28;20033;-46
2021/01/02 06:36:31;;;;;;;42.10;19.23;;;-0.10;99.90;;;;;;5031579;28;20026;-46
2021/01/02 06:39:23;;;;;;;33.30;15.77;;;-0.10;99.90;;;;;;5036263;28;20025;-47
2021/01/02 06:41:49;;;;;;;39.78;17.20;;;-0.10;99.90;;;;;;5043316;28;20071;-46
2021/01/02 06:44:44;;;;;;;37.25;17.20;;;0.00;99.90;;;;;;5034666;28;20051;-48
2021/01/02 06:47:20;;;;;;;44.50;21.55;;;-0.10;99.90;;;;;;5036609;28;20036;-46
2021/01/02 06:49:47;;;;;;;37.20;17.90;;;0.00;99.90;;;;;;5047920;28;20029;-49
2021/01/02 06:52:32;;;;;;;40.15;18.88;;;0.00;99.90;;;;;;5037235;28;20087;-45
2021/01/02 06:55:27;;;;;;;33.80;13.95;;;0.10;99.90;;;;;;5036592;28;20033;-47
2021/01/02 06:58:16;;;;;;;29.63;13.57;;;0.10;99.90;;;;;;5030731;28;20056;-49
2021/01/02 07:00:42;;;;;;;35.20;14.15;;;0.10;99.90;;;;;;5035696;28;20025;-46
2021/01/02 07:03:41;;;;;;;30.50;13.10;;;0.10;99.90;;;;;;5038945;28;20033;-47
2021/01/02 07:06:23;;;;;;;25.90;12.23;;;0.10;99.90;;;;;;5036259;28;20040;-44
2021/01/02 07:09:00;;;;;;;22.50;10.23;;;0.00;99.90;;;;;;5031463;28;20060;-47
2021/01/02 07:11:34;;;;;;;26.73;12.60;;;0.00;99.90;;;;;;5038804;28;20033;-47
2021/01/02 07:14:09;;;;;;;32.53;14.23;;;-0.10;99.90;;;;;;5037265;28;20122;-45
2021/01/02 07:16:42;;;;;;;29.48;12.35;;;-0.10;99.90;;;;;;5046065;28;20462;-47
2021/01/02 07:19:31;;;;;;;29.35;12.73;;;-0.20;99.90;;;;;;5038236;28;20424;-46
2021/01/02 07:22:20;;;;;;;24.40;10.77;;;-0.20;99.90;;;;;;5037843;28;20658;-46
2021/01/02 07:24:47;;;;;;;27.95;12.32;;;-0.30;99.90;;;;;;5040105;28;20017;-46
2021/01/02 07:27:15;;;;;;;29.77;12.07;;;-0.30;99.90;;;;;;5034323;28;20471;-45
2021/01/02 07:29:43;;;;;;;28.25;13.85;;;-0.40;99.90;;;;;;5037229;28;20029;-44
2021/01/02 07:32:23;;;;;;;29.75;13.10;;;-0.40;99.90;;;;;;5035945;28;20439;-46
2021/01/02 07:35:00;;;;;;;29.67;13.30;;;-0.30;99.90;;;;;;5037728;28;20125;-47
2021/01/02 07:37:34;;;;;;;25.10;11.35;;;-0.30;99.90;;;;;;5042608;28;20040;-44
2021/01/02 07:40:15;;;;;;;27.55;12.63;;;-0.20;99.90;;;;;;5031199;28;20084;-45
2021/01/02 07:42:47;;;;;;;31.25;12.75;;;-0.20;99.90;;;;;;5035426;28;20087;-46
2021/01/02 07:45:16;;;;;;;26.23;12.13;;;-0.10;99.90;;;;;;5036152;28;20029;-44
2021/01/02 07:47:45;;;;;;;32.38;12.77;;;-0.10;99.90;;;;;;5037899;28;20394;-46
2021/01/02 07:50:13;;;;;;;28.40;12.55;;;0.00;99.90;;;;;;5038154;28;20043;-45
2021/01/02 07:52:55;;;;;;;22.42;10.65;;;0.10;99.90;;;;;;5040594;28;21136;-45
2021/01/02 07:55:26;;;;;;;29.65;12.50;;;0.10;99.90;;;;;;5038920;28;20025;-44
2021/01/02 07:57:52;;;;;;;29.10;12.15;;;0.20;99.90;;;;;;5038763;28;20035;-46
2021/01/02 08:00:19;;;;;;;25.42;11.93;;;0.30;99.90;;;;;;5036510;28;20067;-44
2021/01/02 08:02:44;;;;;;;28.20;13.10;;;0.40;99.90;;;;;;5037998;28;20056;-43
2021/01/02 08:05:11;;;;;;;29.58;14.05;;;0.40;99.90;;;;;;5033477;28;20533;-45
2021/01/02 08:07:37;;;;;;;31.10;13.25;;;0.50;99.90;;;;;;5034060;28;20482;-46
2021/01/02 08:10:08;;;;;;;22.50;11.60;;;0.50;99.90;;;;;;5034022;28;20359;-47
2021/01/02 08:12:34;;;;;;;22.98;11.40;;;0.60;99.90;;;;;;5036217;28;20367;-49
2021/01/02 08:14:59;;;;;;;26.05;13.43;;;0.60;99.90;;;;;;5035485;28;20037;-48
2021/01/02 08:17:25;;;;;;;24.40;11.50;;;0.70;99.90;;;;;;5039733;28;20083;-50
2021/01/02 08:19:50;;;;;;;29.95;15.25;;;0.70;99.90;;;;;;5043259;28;20367;-46
2021/01/02 08:22:30;;;;;;;24.80;12.88;;;0.80;99.90;;;;;;5039743;28;20029;-46
2021/01/02 08:24:58;;;;;;;32.25;15.10;;;0.80;99.90;;;;;;5031849;28;20022;-46
2021/01/02 08:27:26;;;;;;;27.50;14.40;;;0.90;99.90;;;;;;5035638;28;20030;-47
2021/01/02 08:29:53;;;;;;;28.70;13.85;;;0.90;99.90;;;;;;5042068;28;20136;-47
2021/01/02 08:32:23;;;;;;;29.27;15.13;;;1.00;99.90;;;;;;5050967;28;20359;-46
2021/01/02 08:34:48;;;;;;;27.88;14.57;;;1.00;99.90;;;;;;5042531;28;20028;-47
2021/01/02 08:37:17;;;;;;;23.50;12.50;;;1.00;99.90;;;;;;5037094;28;20030;-45
2021/01/02 08:39:43;;;;;;;26.67;14.55;;;1.10;99.90;;;;;;5034471;28;20621;-46
2021/01/02 08:42:09;;;;;;;31.05;16.95;;;1.20;99.90;;;;;;5052933;28;20025;-46
2021/01/02 08:44:44;;;;;;;30.20;14.90;;;1.20;99.90;;;;;;5038991;28;20490;-46
2021/01/02 08:47:10;;;;;;;22.50;12.50;;;1.20;99.90;;;;;;5039613;28;20027;-46
2021/01/02 08:49:42;;;;;;;23.67;12.07;;;1.30;99.90;;;;;;5043220;28;20028;-51
2021/01/02 08:52:25;;;;;;;27.45;15.00;;;1.30;99.90;;;;;;5038116;28;20036;-47
2021/01/02 08:55:14;;;;;;;33.50;17.52;;;1.30;99.90;;;;;;5036206;28;20033;-48
2021/01/02 08:57:50;;;;;;;39.05;19.52;;;1.40;99.90;;;;;;5031576;28;20471;-50
2021/01/02 09:00:23;;;;;;;28.58;15.10;;;1.50;99.90;;;;;;5033854;28;20055;-50
2021/01/02 09:02:52;;;;;;;26.58;14.57;;;1.60;99.90;;;;;;5034509;28;20040;-47
2021/01/02 09:05:30;;;;;;;29.23;14.35;;;1.60;99.90;;;;;;5037191;28;21018;-51
2021/01/02 09:08:05;;;;;;;28.88;15.07;;;1.70;99.90;;;;;;5039271;28;20068;-49
2021/01/02 09:10:36;;;;;;;42.22;22.52;;;1.70;99.90;;;;;;5034700;28;20029;-50
2021/01/02 09:13:20;;;;;;;23.85;14.25;;;1.70;99.90;;;;;;5037681;28;20052;-48
2021/01/02 09:15:51;;;;;;;32.15;17.05;;;1.80;99.90;;;;;;5032814;28;20977;-47
2021/01/02 09:18:18;;;;;;;25.35;13.32;;;1.70;99.90;;;;;;5030771;28;20032;-48
2021/01/02 09:20:44;;;;;;;25.17;14.90;;;1.70;99.90;;;;;;5034146;28;20060;-52
2021/01/02 09:23:10;;;;;;;32.45;18.60;;;1.70;99.90;;;;;;5033983;28;20029;-48
2021/01/02 09:25:38;;;;;;;27.73;15.10;;;1.70;99.90;;;;;;5040454;28;20113;-48
2021/01/02 09:28:17;;;;;;;22.58;11.00;;;1.70;99.90;;;;;;5033061;28;20193;-54
2021/01/02 09:30:44;;;;;;;19.25;10.93;;;1.80;99.90;;;;;;5037017;28;20037;-54
2021/01/02 09:33:12;;;;;;;15.18;8.35;;;1.80;99.90;;;;;;5042442;28;20104;-54
2021/01/02 09:35:39;;;;;;;25.13;13.30;;;2.00;99.90;;;;;;5040408;28;20035;-55
2021/01/02 09:38:05;;;;;;;15.77;8.90;;;2.10;99.90;;;;;;5049610;28;20517;-54
2021/01/02 09:40:33;;;;;;;13.88;7.57;;;2.30;99.90;;;;;;5037391;28;20025;-55
2021/01/02 09:42:58;;;;;;;12.35;7.13;;;2.40;99.90;;;;;;5032602;28;20087;-50
2021/01/02 09:45:24;;;;;;;14.45;7.80;;;2.60;99.90;;;;;;5035214;28;20033;-49
2021/01/02 09:47:49;;;;;;;14.65;6.75;;;2.60;99.90;;;;;;5038300;28;20117;-48
2021/01/02 09:50:15;;;;;;;13.30;7.72;;;2.80;99.90;;;;;;5046240;28;20432;-50
2021/01/02 09:52:40;;;;;;;12.32;6.55;;;2.80;99.90;;;;;;5047653;28;20037;-50
2021/01/02 09:55:07;;;;;;;14.15;7.80;;;3.00;99.90;;;;;;5050453;28;20486;-51
2021/01/02 09:57:32;;;;;;;15.60;8.57;;;3.10;99.90;;;;;;5036959;28;20029;-48
2021/01/02 09:59:57;;;;;;;15.98;10.02;;;3.20;99.90;;;;;;5041937;28;20071;-50
2021/01/02 10:02:23;;;;;;;20.05;10.82;;;3.10;99.90;;;;;;5036478;28;20057;-52
2021/01/02 10:04:49;;;;;;;14.38;8.20;;;3.10;99.90;;;;;;5041914;28;20390;-51
2021/01/02 10:07:16;;;;;;;16.20;10.00;;;3.10;99.90;;;;;;5043920;28;20033;-50
2021/01/02 10:09:44;;;;;;;18.25;11.23;;;3.10;99.90;;;;;;5034802;28;20034;-52
2021/01/02 10:12:10;;;;;;;18.33;9.15;;;3.10;99.90;;;;;;5033006;28;20036;-50
2021/01/02 10:14:36;;;;;;;16.23;9.85;;;3.20;99.90;;;;;;5038656;28;20032;-54
2021/01/02 10:17:03;;;;;;;16.65;9.23;;;3.30;99.90;;;;;;5044950;28;20056;-52
2021/01/02 10:19:30;;;;;;;16.35;9.27;;;3.30;99.90;;;;;;5037222;28;20029;-52
2021/01/02 10:21:56;;;;;;;12.52;7.55;;;3.30;99.90;;;;;;5045898;28;20058;-50
2021/01/02 10:24:22;;;;;;;14.05;7.97;;;3.40;99.90;;;;;;5038077;28;20532;-54
2021/01/02 10:26:47;;;;;;;15.45;9.98;;;3.50;99.90;;;;;;5033727;28;20040;-53
2021/01/02 10:29:13;;;;;;;16.45;8.48;;;3.60;99.90;;;;;;5032992;28;20034;-54
2021/01/02 10:31:38;;;;;;;12.43;7.20;;;3.70;99.90;;;;;;5041303;28;20068;-51
2021/01/02 10:34:04;;;;;;;11.32;6.82;;;3.70;99.90;;;;;;5037668;28;20112;-53
2021/01/02 10:36:29;;;;;;;10.38;6.07;;;3.80;99.90;;;;;;5039824;28;20032;-54
2021/01/02 10:38:55;;;;;;;12.55;6.85;;;3.80;99.90;;;;;;5037481;28;20041;-49
2021/01/02 10:41:20;;;;;;;12.02;6.47;;;3.90;99.90;;;;;;5037455;28;20481;-52
2021/01/02 10:43:48;;;;;;;11.35;6.30;;;4.00;99.90;;;;;;5037622;28;20037;-53
2021/01/02 10:46:14;;;;;;;14.40;7.15;;;4.00;99.90;;;;;;5035147;28;20136;-51
2021/01/02 10:48:39;;;;;;;15.18;8.27;;;4.00;99.90;;;;;;5040614;28;20123;-52
2021/01/02 10:51:05;;;;;;;14.68;7.18;;;3.90;99.90;;;;;;5040416;28;20095;-52
2021/01/02 10:53:30;;;;;;;11.57;6.80;;;3.80;99.90;;;;;;5039778;28;20079;-51
2021/01/02 10:55:56;;;;;;;9.02;5.72;;;3.70;99.90;;;;;;5043904;28;20021;-47
2021/01/02 10:58:21;;;;;;;8.50;5.78;;;3.50;99.90;;;;;;5038899;28;20032;-52
2021/01/02 11:00:47;;;;;;;10.60;6.45;;;3.50;99.90;;;;;;5043846;28;20568;-53
2021/01/02 11:03:12;;;;;;;12.27;7.97;;;3.40;99.90;;;;;;5040022;28;20029;-52
2021/01/02 11:05:38;;;;;;;15.43;9.52;;;3.40;99.90;;;;;;5047262;28;20120;-52
2021/01/02 11:08:04;;;;;;;10.77;6.75;;;3.40;99.90;;;;;;5051040;28;20029;-55
2021/01/02 11:10:30;;;;;;;13.32;7.28;;;3.40;99.90;;;;;;5054082;28;20104;-52
2021/01/02 11:12:55;;;;;;;12.60;6.80;;;3.40;99.90;;;;;;5042065;28;20112;-51
2021/01/02 11:15:21;;;;;;;14.75;8.13;;;3.40;99.90;;;;;;5045348;28;20375;-50
2021/01/02 11:17:46;;;;;;;13.23;8.63;;;3.40;99.90;;;;;;5045395;28;20124;-53
2021/01/02 11:20:12;;;;;;;14.18;8.00;;;3.40;99.90;;;;;;5037233;28;20036;-51
2021/01/02 11:22:39;;;;;;;13.52;7.68;;;3.40;99.90;;;;;;5039279;28;20033;-53
2021/01/02 11:25:05;;;;;;;16.75;8.82;;;3.50;99.90;;;;;;5046055;28;20116;-51
2021/01/02 11:27:31;;;;;;;15.75;8.82;;;3.50;99.90;;;;;;5044668;28;20054;-51
2021/01/02 11:29:56;;;;;;;17.70;9.27;;;3.50;99.90;;;;;;5044589;28;20044;-52
2021/01/02 11:32:22;;;;;;;14.70;8.00;;;3.40;99.90;;;;;;5041971;28;20037;-53
2021/01/02 11:34:47;;;;;;;13.73;7.07;;;3.40;99.90;;;;;;5049579;28;20112;-54
2021/01/02 11:37:14;;;;;;;14.13;8.20;;;3.40;99.90;;;;;;5039274;28;20037;-52
2021/01/02 11:39:40;;;;;;;17.40;11.10;;;3.30;99.90;;;;;;5042120;28;20041;-55
2021/01/02 11:42:09;;;;;;;14.77;8.32;;;3.40;99.90;;;;;;5040952;28;20055;-54
2021/01/02 11:44:35;;;;;;;14.70;8.60;;;3.40;99.90;;;;;;5039515;28;20818;-55
2021/01/02 11:47:02;;;;;;;14.32;8.35;;;3.40;99.90;;;;;;5036408;28;20025;-51
2021/01/02 11:49:33;;;;;;;14.60;8.00;;;3.30;99.90;;;;;;5036242;28;20032;-50
2021/01/02 11:52:01;;;;;;;16.08;7.60;;;3.30;99.90;;;;;;5044620;28;20173;-50
2021/01/02 11:54:30;;;;;;;14.40;7.20;;;3.20;99.90;;;;;;5036137;28;20034;-51
2021/01/02 11:56:56;;;;;;;18.20;10.70;;;3.20;99.90;;;;;;5035950;28;20040;-50
2021/01/02 11:59:22;;;;;;;15.07;9.15;;;3.20;99.90;;;;;;5032323;28;20044;-50
2021/01/02 12:01:53;;;;;;;13.55;8.05;;;3.30;99.90;;;;;;5038492;28;20028;-52
2021/01/02 12:04:21;;;;;;;17.08;9.48;;;3.40;99.90;;;;;;5037679;28;20068;-54
2021/01/02 12:06:46;;;;;;;12.20;7.45;;;3.40;99.90;;;;;;5041493;28;20489;-53
2021/01/02 12:09:14;;;;;;;13.10;7.82;;;3.50;99.90;;;;;;5041588;28;20116;-49
2021/01/02 12:11:43;;;;;;;15.63;7.20;;;3.60;99.90;;;;;;5032933;28;20036;-49
2021/01/02 12:14:11;;;;;;;15.70;10.90;;;3.60;99.90;;;;;;5036516;28;20026;-47
2021/01/02 12:16:44;;;;;;;12.50;7.68;;;3.70;99.90;;;;;;5032372;28;20028;-52
2021/01/02 12:19:16;;;;;;;13.90;7.75;;;3.80;99.90;;;;;;5040358;28;20017;-53
2021/01/02 12:21:42;;;;;;;16.05;7.78;;;3.90;99.90;;;;;;5036435;28;20028;-47
2021/01/02 12:24:08;;;;;;;12.82;8.13;;;4.10;99.90;;;;;;5035017;28;20029;-50
2021/01/02 12:26:34;;;;;;;15.15;7.68;;;4.20;99.90;;;;;;5035579;28;20364;-49
2021/01/02 12:28:59;;;;;;;19.65;8.02;;;4.30;99.90;;;;;;5043460;28;20040;-49
2021/01/02 12:31:27;;;;;;;17.25;9.07;;;4.40;99.90;;;;;;5038864;28;20105;-50
2021/01/02 12:33:53;;;;;;;21.85;11.68;;;4.50;99.90;;;;;;5046262;28;20039;-51
2021/01/02 12:36:29;;;;;;;13.05;8.18;;;4.60;99.90;;;;;;5035916;28;20633;-51
2021/01/02 12:38:55;;;;;;;15.38;9.55;;;4.70;99.90;;;;;;5046589;28;20036;-50
2021/01/02 12:41:20;;;;;;;16.50;10.05;;;4.70;99.90;;;;;;5033058;28;20466;-49
2021/01/02 12:43:47;;;;;;;18.77;10.95;;;4.70;99.90;;;;;;5043866;28;20043;-50
2021/01/02 12:46:15;;;;;;;19.25;11.65;;;4.70;99.90;;;;;;5037666;28;20028;-52
2021/01/02 12:48:40;;;;;;;23.42;14.32;;;4.60;99.90;;;;;;5042630;28;20025;-49
2021/01/02 12:51:07;;;;;;;25.17;12.85;;;4.50;99.90;;;;;;5036763;28;20064;-50
2021/01/02 12:53:33;;;;;;;28.75;17.13;;;4.50;99.90;;;;;;5035790;28;20021;-55
2021/01/02 12:55:59;;;;;;;20.60;12.27;;;4.40;99.90;;;;;;5030890;28;20502;-55
2021/01/02 12:58:24;;;;;;;21.27;12.73;;;4.30;99.90;;;;;;5041759;28;20036;-56
2021/01/02 13:00:49;;;;;;;17.80;11.43;;;4.20;99.90;;;;;;5043499;28;20130;-54